Change Date:Time:

Metar of : 2/22/2024 0700UTC
 Station  Wind Direction  Speed  Visibility Clouds Temperature Pressure Humidity
OPAS 220700Z 18002KT 9999 FEW040 02/M08 46%
ASTORE S 02KT 9999m Partly Cloudy 02oC 46%
OPAK 00000KT 6000 NSC 17/06 Q1014 47%
ATTOCK --- 00KT 6000m Clear 17oC 1014hp 47%
OPBR 00000KT 6000 NSC 21/11 53%
BAHAWALNAGAR --- 00KT 6000m Clear 21oC 53%
OPBW 05004KT 3500 HZ NSC 24/07 Q1015 33%
BAHAWALPUR A/P NE 04KT 3500m Haze 24oC 1015hp 33%
OPBN 0700Z 05002KT CAVOK 19/10 RH 55%
BANNU NE 02KT Clear 19oC 55%
OPBKR 13002KT CAVOK 23/07 35%
BHAKKAR SE 02KT Clear 23oC 35%
OPBJ 220700Z 18002KT 8000 FEW020ST SCT040 SCT120 12/M09 25%
BUNJI S 02KT 8000m Partly Cloudy 12oC 25%
OPCK 31002KT 9000 SCT040 17/06 49%
CHAKWAL NW 02KT 9000m Partly Cloudy 17oC 49%
OPCH 220700Z 00000KT 9999 SCT040 SCT100 06/M08 Q1017 36%
CHITRAL --- 00KT 9999m Partly Cloudy 06oC 1017hp 36%
OPDG 13002KT 4000 HZ NSC 22/08 Q1015 40%
D G KHAN SE 02KT 4000m Haze 22oC 1015hp 40%
OPDI 00000KT 6000 NSC 21/05 Q1015 34%
DI Khan Airport --- 00KT 6000m Clear 21oC 1015hp 34%
OPDIR 0700Z 23002KT 9999 SCT 035 11/-01 44%
DIR SW 02KT 9999m Partly Cloudy 11oC 44%
OPDH 2200700Z 0000KT 9999 FEW050 07/M06 39%
DROSH 9999m Partly Cloudy 07oC 39%
OPFA 00000KT 5000 HZ NSC 22/05 Q1017 NOSIG 33%
FAISALABAD --- 00KT 5000m Haze 22oC 1017hp 33%
OPGP 31002KT CAVOK 15/04 46%
GARHI DOPATTA NW 02KT Clear 15oC 46%
OPGD 220700Z 00000KT 7000 NSC 26/06 Q1017 RH27%
GAWADAR --- 00KT 7000m Clear 26oC 1017hp 27%
OPGT 220700Z 23002KT 9000 FEW030ST FEW040 11/M09 Q1015 RH24% A.V FAIR
GILGIT SW 02KT 9000m Partly Cloudy 11oC 1015hp 24%
OPGW 00000KT CAVOK 20/07 44%
GUJRANWALA --- 00KT Clear 20oC 44%
OPUG 31004KT CAVOK 19/10 55%
GUJRAT NW 04KT Clear 19oC 55%
OPHD 00000KT 6000 NSC 18/09 62%
HAFIZABAD --- 00KT 6000m Clear 18oC 62%
OPKD 220700Z 36018KT 6000 NSC 26/-04 Q1015 RH14%
HYDERABAD N 18KT 6000m Clear 26oC 1015hp 14%
OPIS 31015KT 7000 FEW040 18/03 Q1017 TEMPO H 35%
ISLAMABAD A/P NW 15KT 7000m Partly Cloudy 18oC 1017hp 35%
OPHQ 00000KT 6000 FEW040 20/02 Q1016 RH 31%
ISLAMABAD CITY --- 00KT 6000m Partly Cloudy 20oC 1016hp 31%
OPJD 220700Z 27004KT 6000 HZ NSC 25/-02 Q1016 RH17%
JACOBABAD W 04KT 6000m Haze 25oC 1016hp 17%
OPJG 00000KT 6000 NSC 23/10 Q1016 44%
JHANG --- 00KT 6000m Clear 23oC 1016hp 44%
OPJM 05004KT CAVOK 20/05 36%
JHELUM NE 04KT Clear 20oC 36%
OPJBD 23002KT 9999 FEW 120 21/08 42%
JOHARABAD SW 02KT 9999m Partly Cloudy 21oC 42%
OPKK 22070Z 13002KT 9999 SCT035 SCT100 11/M03 RH39%
KAKUL SE 02KT 9999m Partly Cloudy 11oC 39%
OPKC 220700Z 02008KT 7000 NSC 28/M10 Q1015 RH08%
KARACHI NNE 08KT 7000m Clear 28oC 1015hp 08%
OPKRL 00000KT 5000 HZ NSC 20/06 40%
KAROR (LAYYAH) --- 00KT 5000m Haze 20oC 40%
OPKS 31002KT 6000 NSC 21/10 42%
KASUR NW 02KT 6000m Clear 21oC 42%
OPKW 00000KT 5000 HZ NSC 21/09 Q1014 45%
KHANEWAL --- 00KT 5000m Haze 21oC 1014hp 45%
OPKP 00000KT 3500 HZ NSC 22/10 47%
KHANPUR --- 00KT 3500m Haze 22oC 47%
OPKAD 00000KT 6000 NSC 23/09 Q1017 41%
KOT ADDU --- 00KT 6000m Clear 23oC 1017hp 41%
OPKL 00000KT CAVOK 18/05 40%
KOTLI --- 00KT Clear 18oC 40%
OPLA 32004KT 6000 NSC 21/08 Q1016 A3001 BECMG 0 45%
LAHORE A/P NW 04KT 6000m Clear 21oC 1016hp 45%
OPTMG 0700Z 00000KT 9999 FEW040 15/02 42%
LOWER DIR --- 00KT 9999m Partly Cloudy 15oC 42%
OPMJB 0700Z 05004KT 9999 SCT 040 SCT 100 02/M03 68%
MALAM JABBA NE 04KT 9999m Partly Cloudy 02oC 68%
OPMB 00000KT CAVOK 19/07 Q1016 46%
MANDI BAHUDDIN --- 00KT Clear 19oC 1016hp 46%
OPMA 00000KT 9999 FEW040 20/05 Q1018 36%
MANGLA --- 00KT 9999m Partly Cloudy 20oC 1018hp 36%
OPMIT 220700Z 22508KT 6000 NSC 25/11 Q1012 RH 41%
MITHI SW 08KT 6000m Clear 25oC 1012hp 41%
OPMJ 220700Z 36014KT 6000 NSC 26/02 Q1014.8 INCHES 29.97 RH 21% TEMPO G25KT
MOHENJO DARO N 14KT 6000m Clear 26oC 21%
OPMT 23006KT 2500 HZ NSC 22/08 Q1016 TEMPO 0 40%
Multan Airport SW 06KT 2500m Haze 22oC 1016hp 40%
OPME 05002KT 9999 SCT030 07/M03 50%
MURREE NE 02KT 9999m Partly Cloudy 07oC 50%
OPMF 00000KT 8000 NSC 14/04 RH 49%
MUZAFFARABAD --- 00KT 8000m Clear 14oC 49%
OPNL 31004KT 4500 FU NSC 19/11 Q1014 59%
NAROWAL NW 04KT 4500m Smoke Haze 19oC 1014hp 59%
OPNH 220700Z 36008KT 5000 FU NSC 26/07 Q1015 RH30%
NAWABSHAH N 08KT 5000m Smoke Haze 26oC 1015hp 30%
OPNPT 00000KT 7000 SCT100 21/05 34%
NOOR PUR THAL --- 00KT 7000m Partly Cloudy 21oC 34%
OPOK 31004KT 3000 FU NSC 20/11 Q1017 56%
OKARA NW 04KT 3000m Smoke Haze 20oC 1017hp 56%
OPPG 220700Z 36010KT 8000 NSC 16/M03 Q1020 RH27%
PANJGUR N 10KT 8000m Clear 16oC 1020hp 27%
OPPI 220700Z 36004KT 5000 NSC 27/09 Q1017 RH32%
PASNI N 04KT 5000m Clear 27oC 1017hp 32%
OPPS 00000KT 7000 NSC 18/M01 Q1017 NOSIG RH 28%
PESHAWAR AP --- 00KT 7000m Clear 18oC 1017hp 28%
OPRK 00000KT 4000 FU NSC 23/13 Q1016 52%
R Y KHAN --- 00KT 4000m Smoke Haze 23oC 1016hp 52%
OPRT 13002KT 9999 SCT040 10/M01 Q1021 45%
RAWALAKOT SE 02KT 9999m Partly Cloudy 10oC 1021hp 45%
OPSW 00000KT 3000 HZ NSC 22/09 Q1015 43%
SAHIWAL --- 00KT 3000m Haze 22oC 1015hp 43%
OPSS 22/0700Z 13504KT 9999 FEW040 14/02 45%
SAIDU SHARIF SE 04KT 9999m Partly Cloudy 14oC 45%
OPSG 13002KT 4000 HZ FEW100 22/09 43%
SARGODHA CITY SE 02KT 4000m Partly Cloudy 22oC 43%
OPSKP 00000KT CAVOK 19/11 59%
Sheikhupura --- 00KT Clear 19oC 59%
OPST 31004KT 7000 NSC 19/01 Q1016 NOSIG 31%
SIALKOT A/P NW 04KT 7000m Clear 19oC 1016hp 31%
OPSKT 31002KT 6000 NSC 20/06 40%
SIALKOT CITY NW 02KT 6000m Clear 20oC 40%
OPSD 220700Z 00000KT 9000 FEW 018ST SCT100 07/M07 Q1018 37% A/V O/H CLOUDY
SKARDU --- 00KT 9000m Partly Cloudy 07oC 1018hp 37%
OPSK 220700Z 31006KT 4000 HZ NSC 25/06 Q1017 INCH. 30.02 R.H 29%NOSIG
SUKKUR NW 06KT 4000m Haze 25oC 1017hp
OPTS 23002KT 6000 NSC 22/09 43%
T T SINGH SW 02KT 6000m Clear 22oC 43%
OPTKB 18002KT CAVOK 18/03 RH 36%
Takht Bai S 02KT Clear 18oC 36%